Latest Weather Observations for Hamilton Island

IDQ60801

Issued at 8:52 pm EST Thursday 3 December 2020 (issued every 10 minutes, with the page automatically refreshed every 10 minutes)

About weather observations | Map of weather stations | Latest weather observations for QLD | Other Formats
Station Details ID: 033106 Name: HAMILTON ISLAND AIRPORT Lat: -20.37 Lon: 148.95 Height: 58.66 m
Data from the previous 72 hours. | See also: Recent months at Hamilton Island
Date/Time
EST
Temp
°C
App
Temp
°C
Dew
Point
°C
Rel
Hum
%
Delta-T
°C
Wind Press
QNH
hPa
Press
MSL
hPa
Rain since
9am
mm
Dir  Spd
km/h
Gust
km/h
Spd
kts
Gust
kts
03/08:30pm 25.9 24.4 22.0 79 2.6 ESE 33 37 18 20 1015.0 1014.7 0.2
03/08:00pm 25.8 24.9 22.1 80 2.5 ESE 30 35 16 19 1015.1 1014.8 0.2
03/07:30pm 25.7 24.7 22.0 80 2.5 ESE 30 33 16 18 1015.2 1014.9 0.2
03/07:00pm 25.7 25.0 21.8 79 2.6 ESE 28 33 15 18 1015.2 1014.9 0.2
03/06:30pm 25.3 23.4 22.0 82 2.2 ESE 35 43 19 23 1014.9 1014.6 0.2
03/06:09pm 25.7 24.4 22.4 82 2.2 ESE 33 52 18 28 1014.6 1014.3 0.2
03/06:00pm 26.2 24.5 21.4 75 3.2 ESE 32 35 17 19 1014.7 1014.4 0.2
03/05:30pm 27.0 26.2 20.8 69 4.1 ESE 26 30 14 16 1014.6 1014.3 0.2
03/05:00pm 27.6 26.3 20.7 66 4.6 ESE 28 32 15 17 1014.6 1014.3 0.2
03/04:30pm 27.7 26.0 20.5 65 4.7 ESE 30 33 16 18 1014.5 1014.2 0.2
03/04:00pm 28.1 26.8 20.6 63 5.0 SE 28 32 15 17 1014.3 1014.0 0.2
03/03:30pm 28.2 27.5 21.0 65 4.8 ESE 26 32 14 17 1014.4 1014.1 0.2
03/03:00pm 28.8 27.1 20.5 61 5.5 ESE 30 35 16 19 1014.6 1014.3 0.2
03/02:30pm 28.5 26.5 20.8 63 5.1 ESE 32 41 17 22 1014.8 1014.5 0.2
03/02:00pm 28.2 25.8 20.0 61 5.4 ESE 32 37 17 20 1014.9 1014.6 0.2
03/01:30pm 29.0 27.1 21.0 62 5.3 ESE 32 35 17 19 1015.0 1014.7 0.2
03/01:00pm 28.7 26.7 20.7 62 5.3 ESE 32 37 17 20 1015.3 1015.0 0.2
03/12:30pm 28.8 26.6 20.8 62 5.3 ESE 33 37 18 20 1015.5 1015.2 0.2
03/12:00pm 28.8 26.5 20.5 61 5.5 ESE 33 39 18 21 1015.8 1015.5 0.2
03/11:30am 28.5 25.3 20.2 60 5.5 ESE 37 41 20 22 1016.1 1015.8 0.2
03/11:00am 28.2 25.1 21.2 65 4.7 E 39 44 21 24 1016.2 1015.9 0.2
03/10:30am 28.3 25.1 21.1 65 4.8 E 39 43 21 23 1016.2 1015.9 0.2
03/10:00am 28.9 25.4 21.1 62 5.2 ESE 41 46 22 25 1016.0 1015.7 0.2
03/09:30am 28.3 24.6 21.8 68 4.4 ESE 44 52 24 28 1016.2 1015.9 0.0
03/09:00am 27.9 24.7 21.7 69 4.2 ESE 41 48 22 26 1016.1 1015.8 0.2
03/08:30am 27.4 23.5 21.4 70 4.0 ESE 44 52 24 28 1016.0 1015.7 0.2
03/08:00am 26.8 24.2 22.2 76 3.1 ESE 39 48 21 26 1015.7 1015.4 0.2
03/07:30am 25.3 24.5 23.0 87 1.6 ESE 32 39 17 21 1015.6 1015.3 0.2
03/07:00am 26.6 25.2 22.0 76 3.1 ESE 32 37 17 20 1015.4 1015.1 0.0
03/06:30am 26.7 24.9 21.2 72 3.7 E 32 37 17 20 1015.2 1014.9 0.0
03/06:00am 26.3 24.7 21.5 75 3.2 E 32 39 17 21 1014.7 1014.4 0.0
03/05:30am 25.9 23.7 20.7 73 3.4 E 33 37 18 20 1014.2 1013.9 0.0
03/05:00am 25.8 23.8 21.2 76 3.0 E 33 37 18 20 1013.9 1013.6 0.0
03/04:30am 25.8 24.2 21.5 77 2.9 E 32 39 17 21 1013.7 1013.4 0.0
03/04:00am 25.7 25.4 21.8 79 2.6 E 26 32 14 17 1013.7 1013.4 0.0
03/03:30am 25.8 24.3 21.7 78 2.7 E 32 37 17 20 1013.4 1013.0 0.0
03/03:00am 25.7 26.1 21.8 79 2.6 E 22 28 12 15 1013.4 1013.0 0.0
03/02:30am 25.7 26.0 21.6 78 2.7 E 22 28 12 15 1013.4 1013.0 0.0
03/02:00am 25.7 27.1 21.8 79 2.6 ENE 17 22 9 12 1013.5 1013.1 0.0
03/01:30am 25.8 26.7 21.9 79 2.6 E 20 26 11 14 1013.7 1013.4 0.0
03/01:00am 25.8 26.7 21.9 79 2.6 E 20 24 11 13 1014.0 1013.7 0.0
03/12:30am 26.0 26.0 21.7 77 2.9 E 24 28 13 15 1014.4 1014.1 0.0
03/12:00am 26.1 26.6 22.0 78 2.7 E 22 30 12 16 1014.8 1014.5 0.0
 
Date/Time
EST
Temp
°C
App
Temp
°C
Dew
Point
°C
Rel
Hum
%
Delta-T
°C
Wind Press
QNH
hPa
Press
MSL
hPa
Rain since
9am
mm
Dir  Spd
km/h
Gust
km/h
Spd
kts
Gust
kts
02/11:30pm 26.1 27.1 22.2 79 2.6 ENE 20 28 11 15 1015.0 1014.7 0.0
02/11:00pm 26.1 27.0 22.6 81 2.4 E 22 32 12 17 1015.2 1014.9 0.0
02/10:30pm 26.2 26.7 22.7 81 2.4 E 24 30 13 16 1015.4 1015.1 0.0
02/10:00pm 26.3 26.0 22.6 80 2.5 E 28 35 15 19 1015.5 1015.2 0.0
02/09:30pm 26.5 26.8 23.0 81 2.4 E 26 33 14 18 1015.5 1015.2 0.0
02/09:00pm 26.4 26.6 22.7 80 2.5 E 26 33 14 18 1015.2 1014.9 0.0
02/08:31pm 26.4 28.7 22.7 80 2.5 E 15 20 8 11 1014.9 1014.6 0.0
02/08:30pm 26.4 28.7 22.7 80 2.5 E 15 20 8 11 1014.9 1014.6 0.0
02/08:20pm 26.5 27.7 23.2 82 2.3 E 22 26 12 14 1014.7 1014.4 0.0
02/08:00pm 26.6 27.3 22.9 80 2.5 E 24 30 13 16 1014.7 1014.4 0.0
02/07:30pm 26.5 28.1 22.8 80 2.5 E 19 24 10 13 1014.5 1014.2 0.0
02/07:00pm 26.7 27.7 22.8 79 2.6 ENE 22 32 12 17 1014.1 1013.8 0.0
02/06:30pm 26.7 26.4 22.5 78 2.8 ENE 28 37 15 20 1013.8 1013.5 0.0
02/06:00pm 27.0 27.1 22.6 77 3.0 E 26 35 14 19 1013.7 1013.4 0.0
02/05:30pm 27.5 27.9 22.4 73 3.5 ENE 24 32 13 17 1013.4 1013.0 0.0
02/05:00pm 27.5 27.1 22.4 73 3.5 E 28 33 15 18 1013.0 1012.6 0.0
02/04:30pm 27.9 27.9 22.4 72 3.7 E 26 33 14 18 1013.0 1012.6 0.0
02/04:00pm 27.8 27.2 22.7 74 3.5 E 30 35 16 19 1012.6 1012.2 0.0
02/03:30pm 28.0 27.7 23.2 75 3.3 E 30 37 16 20 1012.6 1012.2 0.0
02/03:00pm 28.5 28.4 23.6 75 3.4 E 30 33 16 18 1012.7 1012.3 0.0
02/02:30pm 28.4 28.1 23.3 74 3.5 E 30 32 16 17 1012.7 1012.3 0.0
02/02:00pm 28.7 28.5 23.4 73 3.6 E 30 35 16 19 1013.0 1012.6 0.0
02/01:30pm 28.6 28.0 23.3 73 3.6 E 32 35 17 19 1013.3 1012.9 0.0
02/01:00pm 29.2 29.0 23.4 71 4.0 E 30 33 16 18 1013.4 1013.0 0.0
02/12:30pm 28.9 28.6 23.3 72 3.8 E 30 33 16 18 1013.9 1013.6 0.0
02/12:00pm 28.4 28.4 23.1 73 3.6 E 28 32 15 17 1014.1 1013.8 0.0
02/11:30am 28.8 28.9 23.2 71 3.8 E 28 32 15 17 1014.4 1014.1 0.0
02/11:00am 29.0 29.0 23.0 70 4.1 E 28 32 15 17 1014.6 1014.3 0.0
02/10:30am 28.8 29.1 23.0 71 4.0 E 26 32 14 17 1014.9 1014.6 0.0
02/10:00am 29.4 30.6 23.8 72 3.9 E 24 28 13 15 1015.0 1014.7 0.0
02/09:30am 29.3 30.2 23.3 70 4.1 ESE 24 26 13 14 1015.1 1014.8 0.0
02/09:00am 28.8 30.2 23.5 73 3.6 E 22 24 12 13 1015.0 1014.7 0.0
02/08:30am 29.3 30.9 23.3 70 4.1 ESE 20 24 11 13 1015.0 1014.7 0.0
02/08:00am 29.6 32.5 23.1 68 4.5 E 13 20 7 11 1014.9 1014.6 0.0
02/07:30am 28.6 31.2 22.6 70 4.1 ENE 13 17 7 9 1014.9 1014.6 0.0
02/07:00am 27.7 29.4 23.1 76 3.1 ENE 19 26 10 14 1014.6 1014.3 0.0
02/06:30am 27.0 28.5 23.0 79 2.7 ENE 20 26 11 14 1014.0 1013.7 0.0
02/06:00am 26.1 27.3 23.2 84 2.0 ENE 22 26 12 14 1013.6 1013.3 0.0
02/05:30am 25.7 27.2 23.0 85 1.8 ENE 20 24 11 13 1013.2 1012.8 0.0
02/05:00am 25.8 27.6 23.3 86 1.7 ENE 19 24 10 13 1013.1 1012.7 0.0
02/04:30am 25.7 27.3 23.2 86 1.7 NE 20 22 11 12 1012.7 1012.3 0.0
02/04:00am 25.8 27.1 23.3 86 1.7 ENE 22 26 12 14 1012.5 1012.1 0.0
02/03:30am 25.9 27.1 23.2 85 1.8 ENE 22 24 12 13 1012.3 1011.9 0.0
02/03:00am 25.9 27.5 23.2 85 1.8 ENE 20 26 11 14 1012.3 1011.9 0.0
02/02:30am 26.0 27.1 23.1 84 2.0 ENE 22 28 12 15 1012.4 1012.0 0.0
02/02:00am 25.9 28.0 23.8 88 1.4 ENE 19 24 10 13 1012.4 1012.0 0.0
02/01:30am 25.9 27.3 23.6 87 1.6 ENE 22 30 12 16 1012.7 1012.3 0.0
02/01:02am 25.9 27.1 23.2 85 1.8 ENE 22 28 12 15 1013.1 1012.7 0.0
02/01:00am 26.0 27.0 23.5 86 1.7 ENE 24 28 13 15 1013.1 1012.7 0.0
02/12:30am 26.1 27.8 23.4 85 1.8 E 20 26 11 14 1013.4 1013.0 0.0
02/12:26am 26.1 27.8 23.4 85 1.8 E 20 26 11 14 1013.4 1013.0 0.0
02/12:00am 26.1 27.8 23.4 85 1.8 ENE 20 32 11 17 1013.7 1013.4 0.0
 
Date/Time
EST
Temp
°C
App
Temp
°C
Dew
Point
°C
Rel
Hum
%
Delta-T
°C
Wind Press
QNH
hPa
Press
MSL
hPa
Rain since
9am
mm
Dir  Spd
km/h
Gust
km/h
Spd
kts
Gust
kts
01/11:30pm 26.2 26.7 23.3 84 2.0 E 26 32 14 17 1014.0 1013.7 0.0
01/11:27pm 26.2 26.7 23.3 84 2.0 E 26 32 14 17 1014.1 1013.8 0.0
01/11:00pm 26.2 27.2 23.5 85 1.8 E 24 28 13 15 1014.4 1014.1 0.0
01/10:34pm 26.3 27.4 23.6 85 1.9 E 24 28 13 15 1014.5 1014.2 0.0
01/10:30pm 26.2 27.5 23.3 84 2.0 E 22 28 12 15 1014.4 1014.1 0.0
01/10:00pm 26.2 26.3 23.3 84 2.0 E 28 33 15 18 1014.4 1014.1 0.0
01/09:30pm 26.3 27.2 23.4 84 2.0 E 24 30 13 16 1014.3 1014.0 0.0
01/09:00pm 26.3 26.6 23.0 82 2.2 E 26 30 14 16 1013.9 1013.6 0.0
01/08:30pm 26.4 26.9 22.7 80 2.5 E 24 30 13 16 1013.8 1013.5 0.0
01/08:00pm 26.4 27.6 22.5 79 2.6 ENE 20 26 11 14 1013.6 1013.3 0.0
01/07:30pm 26.4 27.8 22.5 79 2.6 ENE 19 24 10 13 1013.3 1012.9 0.0
01/07:00pm 26.5 27.6 22.3 78 2.8 E 20 26 11 14 1012.9 1012.5 0.0
01/06:30pm 26.7 27.2 21.9 75 3.2 E 22 28 12 15 1012.7 1012.3 0.0
01/06:00pm 27.1 27.3 22.1 74 3.4 E 24 28 13 15 1012.5 1012.1 0.0
01/05:30pm 27.3 27.6 21.6 71 3.8 E 22 26 12 14 1012.2 1011.8 0.0
01/05:00pm 27.4 27.8 22.4 74 3.4 E 24 28 13 15 1012.2 1011.8 0.0
01/04:30pm 27.6 27.8 22.8 75 3.3 E 26 33 14 18 1012.0 1011.6 0.0
01/04:00pm 27.7 27.4 22.6 74 3.5 E 28 32 15 17 1012.0 1011.6 0.0
01/03:30pm 28.2 28.1 22.9 73 3.6 E 28 32 15 17 1012.3 1011.9 0.0
01/03:00pm 28.2 27.7 22.2 70 4.1 E 28 30 15 16 1012.6 1012.2 0.0
01/02:30pm 28.6 28.8 22.8 71 4.0 ESE 26 30 14 16 1013.0 1012.6 0.0
01/02:00pm 28.9 28.5 22.4 68 4.4 E 28 30 15 16 1013.3 1012.9 0.0
01/01:30pm 29.3 29.2 22.3 66 4.8 ESE 26 30 14 16 1013.6 1013.3 0.0
01/01:00pm 29.5 29.6 22.5 66 4.8 ESE 26 30 14 16 1013.9 1013.6 0.0
01/12:30pm 29.5 29.9 22.5 66 4.8 ESE 24 28 13 15 1014.3 1014.0 0.0
01/12:00pm 29.5 29.8 22.2 65 4.9 ESE 24 28 13 15 1014.6 1014.3 0.0
01/11:30am 29.4 30.9 23.1 69 4.3 E 20 24 11 13 1015.0 1014.7 0.0
01/11:00am 29.2 30.3 22.4 66 4.6 ESE 20 24 11 13 1015.3 1015.0 0.0
01/10:30am 28.9 29.8 21.9 66 4.7 E 20 24 11 13 1015.5 1015.2 0.0
01/10:00am 29.1 30.4 22.3 66 4.6 ESE 19 22 10 12 1015.6 1015.3 0.0
01/09:30am 29.1 30.2 22.3 66 4.6 ESE 20 24 11 13 1015.5 1015.2 0.0
01/09:00am 29.2 30.8 22.2 66 4.7 ESE 17 20 9 11 1015.5 1015.2 0.0
01/08:30am 28.2 29.0 21.7 68 4.4 E 20 22 11 12 1015.2 1014.9 0.0
01/08:00am 28.2 29.1 21.5 67 4.5 E 19 24 10 13 1014.9 1014.6 0.0
01/07:30am 28.0 28.5 20.8 65 4.8 E 19 24 10 13 1014.6 1014.3 0.0
01/07:00am 27.2 29.6 20.8 68 4.2 ENE 9 13 5 7 1014.2 1013.9 0.0
01/06:30am 25.6 28.9 21.5 78 2.7 NW 6 7 3 4 1013.7 1013.4 0.0
01/06:00am 25.4 27.7 20.6 75 3.1 E 9 11 5 6 1013.5 1013.2 0.0
01/05:30am 25.2 28.1 21.1 78 2.7 ENE 7 11 4 6 1012.9 1012.6 0.0
01/05:00am 25.1 27.8 20.6 76 2.9 ENE 7 9 4 5 1012.4 1012.1 0.0
01/04:30am 24.7 26.9 20.4 77 2.8 ENE 9 13 5 7 1012.2 1011.9 0.0
01/04:00am 24.7 26.7 20.0 75 3.1 ENE 9 11 5 6 1011.9 1011.6 0.0
01/03:30am 24.9 26.0 19.7 73 3.4 ENE 13 19 7 10 1011.8 1011.5 0.0
01/03:00am 24.9 25.9 19.5 72 3.5 ENE 13 15 7 8 1011.8 1011.5 0.0
01/02:30am 24.9 26.5 19.9 74 3.2 ENE 11 15 6 8 1011.9 1011.6 0.0
01/02:00am 25.1 25.8 19.7 72 3.5 ENE 15 19 8 10 1012.0 1011.7 0.0
01/01:30am 25.2 25.0 19.3 70 3.8 NE 19 26 10 14 1012.0 1011.7 0.0
01/01:00am 25.2 24.8 18.9 68 4.0 ENE 19 24 10 13 1012.1 1011.8 0.0
01/12:30am 25.3 24.8 18.7 67 4.2 ENE 19 28 10 15 1012.1 1011.8 0.0
01/12:00am 25.3 25.7 19.0 68 4.0 ENE 15 20 8 11 1012.6 1012.3 0.0
 
Date/Time
EST
Temp
°C
App
Temp
°C
Dew
Point
°C
Rel
Hum
%
Delta-T
°C
Wind Press
QNH
hPa
Press
MSL
hPa
Rain since
9am
mm
Dir  Spd
km/h
Gust
km/h
Spd
kts
Gust
kts
30/11:30pm 25.5 25.0 19.2 68 4.0 ENE 20 24 11 13 1012.7 1012.4 0.0
30/11:00pm 25.5 26.0 19.2 68 4.0 E 15 24 8 13 1013.0 1012.7 0.0
30/10:30pm 25.5 25.1 19.4 69 3.9 ENE 20 24 11 13 1012.9 1012.6 0.0
30/10:00pm 25.5 25.2 19.2 68 4.1 ENE 19 24 10 13 1012.8 1012.5 0.0
30/09:30pm 25.5 26.1 19.4 69 3.9 ENE 15 20 8 11 1012.4 1012.1 0.0
30/09:00pm 25.3 25.8 19.2 69 3.9 ENE 15 17 8 9 1012.2 1011.9 0.0

Other formats

Comma delimited format used in spreadsheet applications
http://www.bom.gov.au/fwo/IDQ60801/IDQ60801.94368.axf

JavaScript Object Notation format (JSON) in row-major order
http://www.bom.gov.au/fwo/IDQ60801/IDQ60801.94368.json

Data quality

Most of these data are generated automatically and are frequently updated. Quality checks on data are not normally performed. It is possible for incorrect values to appear. Refer to information at About Latest Weather Observations and please check the disclaimer before using these data.